createdAt,value
2023-02-02T00:01:33.667Z,23.27
2023-02-02T00:04:02.983Z,21.42
2023-02-02T00:06:35.765Z,17.00
2023-02-02T00:09:04.297Z,18.30
2023-02-02T00:11:35.269Z,11.68
2023-02-02T00:14:03.673Z,15.48
2023-02-02T00:16:36.435Z,15.23
2023-02-02T00:19:08.909Z,11.48
2023-02-02T00:21:39.908Z,20.77
2023-02-02T00:24:09.357Z,14.75
2023-02-02T00:26:40.185Z,16.30
2023-02-02T00:29:08.988Z,15.45
2023-02-02T00:31:37.499Z,20.52
2023-02-02T00:34:07.344Z,24.10
2023-02-02T00:36:35.954Z,22.95
2023-02-02T00:39:04.891Z,31.17
2023-02-02T00:41:35.856Z,32.45
2023-02-02T00:44:22.763Z,23.77
2023-02-02T00:46:51.220Z,19.35
2023-02-02T00:49:20.140Z,21.92
2023-02-02T00:51:49.721Z,22.55
2023-02-02T00:54:21.813Z,24.38
2023-02-02T00:56:52.929Z,22.17
2023-02-02T00:59:22.507Z,29.58
2023-02-02T01:01:51.275Z,31.40
2023-02-02T01:04:21.010Z,23.00
2023-02-02T01:06:49.511Z,14.35
2023-02-02T01:09:19.632Z,30.38
2023-02-02T01:11:48.143Z,17.13
2023-02-02T01:14:18.095Z,28.48
2023-02-02T01:16:47.843Z,18.58
2023-02-02T01:19:20.052Z,17.13
2023-02-02T01:21:51.176Z,22.38
2023-02-02T01:24:24.456Z,21.50
2023-02-02T01:26:52.839Z,17.17
2023-02-02T01:29:21.420Z,18.13
2023-02-02T01:31:53.934Z,17.10
2023-02-02T01:34:24.700Z,21.70
2023-02-02T01:36:53.918Z,18.58
2023-02-02T01:39:23.919Z,18.75
2023-02-02T01:41:52.339Z,26.90
2023-02-02T01:44:41.067Z,22.52
2023-02-02T01:47:10.393Z,24.83
2023-02-02T01:49:40.121Z,23.80
2023-02-02T01:52:10.066Z,42.40
2023-02-02T01:54:41.310Z,33.63
2023-02-02T01:57:13.137Z,21.95
2023-02-02T01:59:44.572Z,23.88
2023-02-02T02:02:13.735Z,33.08
2023-02-02T02:04:44.863Z,28.60
2023-02-02T02:07:13.515Z,28.80
2023-02-02T02:09:44.194Z,25.42
2023-02-02T02:12:15.435Z,15.85
2023-02-02T02:15:04.090Z,24.98
2023-02-02T02:18:00.980Z,23.25
2023-02-02T02:20:54.234Z,17.50
2023-02-02T02:23:49.498Z,22.98
2023-02-02T02:26:41.299Z,27.55
2023-02-02T02:29:32.440Z,21.13
2023-02-02T02:32:04.265Z,27.15
2023-02-02T02:34:32.699Z,18.42
2023-02-02T02:37:10.684Z,27.92
2023-02-02T02:40:08.230Z,27.13
2023-02-02T02:42:45.478Z,19.30
2023-02-02T02:45:15.228Z,17.10
2023-02-02T02:47:49.001Z,24.92
2023-02-02T02:50:18.123Z,26.40
2023-02-02T02:52:59.818Z,25.30
2023-02-02T02:55:37.173Z,20.88
2023-02-02T02:58:08.106Z,13.50
2023-02-02T03:00:40.731Z,24.63
2023-02-02T03:03:09.199Z,21.00
2023-02-02T03:05:40.412Z,27.48
2023-02-02T03:08:16.193Z,24.33
2023-02-02T03:10:45.614Z,13.98
2023-02-02T03:13:16.955Z,19.48
2023-02-02T03:15:47.745Z,19.58
2023-02-02T03:18:18.728Z,16.65
2023-02-02T03:20:47.446Z,24.63
2023-02-02T03:23:17.624Z,31.63
2023-02-02T03:25:48.680Z,27.52
2023-02-02T03:28:19.820Z,23.98
2023-02-02T03:30:51.207Z,33.53
2023-02-02T03:33:28.156Z,28.75
2023-02-02T03:36:02.412Z,18.45
2023-02-02T03:38:33.707Z,18.42
2023-02-02T03:41:05.548Z,19.52
2023-02-02T03:43:36.175Z,16.80
2023-02-02T03:46:05.977Z,23.73
2023-02-02T03:48:41.871Z,22.58
2023-02-02T03:51:14.015Z,19.70
2023-02-02T03:53:48.136Z,18.60
2023-02-02T03:56:19.265Z,29.45
2023-02-02T03:58:49.134Z,15.90
2023-02-02T04:01:27.172Z,21.15
2023-02-02T04:03:56.364Z,13.32
2023-02-02T04:06:28.321Z,36.58
2023-02-02T04:08:57.702Z,24.52
2023-02-02T04:11:27.823Z,39.95
2023-02-02T04:14:04.417Z,28.58
2023-02-02T04:16:37.657Z,25.58
2023-02-02T04:19:06.388Z,18.70
2023-02-02T04:21:35.716Z,18.45
2023-02-02T04:24:04.153Z,18.35
2023-02-02T04:26:36.087Z,22.63
2023-02-02T04:29:04.518Z,20.25
2023-02-02T04:31:37.927Z,21.23
2023-02-02T04:34:08.725Z,18.55
2023-02-02T04:36:38.073Z,30.45
2023-02-02T04:39:06.601Z,25.35
2023-02-02T04:41:36.000Z,20.02
2023-02-02T04:44:12.667Z,34.03
2023-02-02T04:46:44.286Z,29.30
2023-02-02T04:49:13.007Z,25.30
2023-02-02T04:51:44.044Z,25.83
2023-02-02T04:54:12.623Z,29.27
2023-02-02T04:56:41.614Z,31.52
2023-02-02T04:59:12.469Z,28.90
2023-02-02T05:01:44.869Z,33.38
2023-02-02T05:04:14.069Z,25.20
2023-02-02T05:06:45.378Z,38.40
2023-02-02T05:09:14.997Z,24.30
2023-02-02T05:11:44.961Z,29.88
2023-02-02T05:14:14.339Z,29.77
2023-02-02T05:16:46.283Z,29.58
2023-02-02T05:19:18.347Z,21.23
2023-02-02T05:21:51.161Z,25.88
2023-02-02T05:24:22.124Z,23.88
2023-02-02T05:26:54.979Z,23.52
2023-02-02T05:29:23.733Z,23.48
2023-02-02T05:31:52.488Z,24.98
2023-02-02T05:34:20.961Z,24.17
2023-02-02T05:36:50.158Z,30.10
2023-02-02T05:39:22.348Z,22.98
2023-02-02T05:41:50.987Z,30.48
2023-02-02T05:44:20.257Z,30.17
2023-02-02T05:46:49.153Z,20.67
2023-02-02T05:49:18.705Z,26.92
2023-02-02T05:51:55.083Z,19.88
2023-02-02T05:54:25.320Z,20.58
2023-02-02T05:56:55.836Z,18.88
2023-02-02T05:59:28.259Z,15.80
2023-02-02T06:01:56.932Z,25.67
2023-02-02T06:04:25.374Z,23.63
2023-02-02T06:06:54.557Z,22.40
2023-02-02T06:09:23.767Z,13.25
2023-02-02T06:11:55.637Z,19.83
2023-02-02T06:14:27.233Z,20.98
2023-02-02T06:16:59.074Z,20.15
2023-02-02T06:19:35.046Z,26.10
2023-02-02T06:22:03.864Z,12.27
2023-02-02T06:24:34.404Z,27.33
2023-02-02T06:27:03.104Z,20.65
2023-02-02T06:29:37.085Z,17.95
2023-02-02T06:32:05.885Z,13.85
2023-02-02T06:34:36.084Z,18.92
2023-02-02T06:37:04.762Z,23.60
2023-02-02T06:39:36.164Z,25.55
2023-02-02T06:42:20.387Z,24.73
2023-02-02T06:44:49.699Z,16.00
2023-02-02T06:47:20.044Z,18.77
2023-02-02T06:49:48.467Z,27.63
2023-02-02T06:52:20.829Z,12.18
2023-02-02T06:54:50.270Z,15.57
2023-02-02T06:57:20.665Z,23.02
2023-02-02T06:59:51.188Z,30.42
2023-02-02T07:02:20.700Z,20.70
2023-02-02T07:04:50.375Z,19.15
2023-02-02T07:07:18.925Z,28.38
2023-02-02T07:09:48.306Z,27.90
2023-02-02T07:12:28.641Z,25.73
2023-02-02T07:14:57.018Z,22.08
2023-02-02T07:17:25.745Z,30.77
2023-02-02T07:19:54.335Z,25.27
2023-02-02T07:22:26.378Z,22.85
2023-02-02T07:24:55.465Z,22.20
2023-02-02T07:27:25.786Z,24.65
2023-02-02T07:29:57.202Z,15.15
2023-02-02T07:32:30.196Z,28.67
2023-02-02T07:35:06.574Z,15.00
2023-02-02T07:37:45.808Z,30.52
2023-02-02T07:40:19.022Z,17.55
2023-02-02T07:42:50.588Z,27.63
2023-02-02T07:45:25.572Z,16.85
2023-02-02T07:48:01.824Z,22.77
2023-02-02T07:50:35.679Z,25.75
2023-02-02T07:53:08.908Z,24.08
2023-02-02T07:55:40.017Z,20.48
2023-02-02T07:58:10.187Z,27.25
2023-02-02T08:00:39.987Z,25.20
2023-02-02T08:03:17.648Z,35.00
2023-02-02T08:05:46.524Z,27.42
2023-02-02T08:08:17.111Z,23.35
2023-02-02T08:10:51.804Z,31.73
2023-02-02T08:13:23.070Z,20.95
2023-02-02T08:15:54.373Z,27.98
2023-02-02T08:18:23.857Z,16.58
2023-02-02T08:20:59.729Z,17.25
2023-02-02T08:23:32.643Z,35.35
2023-02-02T08:26:09.842Z,21.13
2023-02-02T08:28:41.429Z,17.83
2023-02-02T08:31:13.666Z,22.20
2023-02-02T08:33:45.594Z,26.40
2023-02-02T08:36:22.092Z,26.95
2023-02-02T08:38:53.504Z,24.70
2023-02-02T08:41:25.107Z,25.98
2023-02-02T08:43:53.825Z,32.50
2023-02-02T08:46:25.309Z,22.35
2023-02-02T08:48:53.682Z,30.27
2023-02-02T08:51:22.515Z,34.38
2023-02-02T08:53:51.034Z,22.83
2023-02-02T08:56:21.324Z,25.58
2023-02-02T08:58:51.942Z,27.23
2023-02-02T09:01:25.295Z,30.70
2023-02-02T09:03:58.094Z,25.02
2023-02-02T09:06:35.973Z,33.60
2023-02-02T09:09:09.480Z,29.95
2023-02-02T09:11:40.704Z,34.47
2023-02-02T09:14:11.417Z,33.03
2023-02-02T09:16:44.020Z,28.35
2023-02-02T09:19:18.448Z,41.03
2023-02-02T09:21:50.903Z,28.27
2023-02-02T09:24:23.390Z,26.13
2023-02-02T09:26:51.941Z,25.25
2023-02-02T09:29:20.380Z,29.08
2023-02-02T09:31:51.030Z,30.67
2023-02-02T09:34:22.446Z,30.95
2023-02-02T09:36:54.351Z,37.83
2023-02-02T09:39:26.199Z,26.45
2023-02-02T09:42:15.752Z,33.78
2023-02-02T09:44:59.636Z,32.97
2023-02-02T09:47:32.154Z,33.45
2023-02-02T09:50:05.346Z,22.65
2023-02-02T09:52:35.551Z,44.35
2023-02-02T09:55:13.191Z,27.02
2023-02-02T09:57:49.933Z,23.73
2023-02-02T10:00:34.482Z,22.42
2023-02-02T10:03:16.324Z,34.97
2023-02-02T10:05:50.130Z,33.17
2023-02-02T10:08:34.384Z,31.13
2023-02-02T10:11:06.398Z,33.17
2023-02-02T10:13:39.231Z,31.02
2023-02-02T10:16:17.174Z,25.08
2023-02-02T10:18:49.943Z,42.13
2023-02-02T10:21:28.975Z,30.77
2023-02-02T10:24:03.437Z,43.85
2023-02-02T10:26:40.248Z,34.22
2023-02-02T10:29:09.032Z,52.80
2023-02-02T10:31:40.158Z,46.33
2023-02-02T10:34:27.066Z,31.73
2023-02-02T10:36:58.257Z,42.00
2023-02-02T10:39:35.962Z,32.95
2023-02-02T10:42:24.348Z,30.52
2023-02-02T10:44:57.795Z,37.45
2023-02-02T10:47:30.919Z,31.98
2023-02-02T10:50:13.359Z,30.05
2023-02-02T10:52:53.402Z,31.70
2023-02-02T10:55:26.446Z,26.25
2023-02-02T10:58:21.156Z,22.88
2023-02-02T11:00:58.222Z,35.92
2023-02-02T11:03:28.442Z,19.67
2023-02-02T11:06:16.512Z,28.05
2023-02-02T11:08:45.957Z,22.98
2023-02-02T11:11:23.575Z,21.83
2023-02-02T11:13:54.892Z,31.05
2023-02-02T11:16:32.620Z,33.42
2023-02-02T11:19:16.304Z,29.20
2023-02-02T11:21:47.343Z,32.45
2023-02-02T11:24:24.886Z,24.95
2023-02-02T11:26:59.587Z,24.02
2023-02-02T11:29:54.157Z,15.23
2023-02-02T11:32:26.531Z,27.73
2023-02-02T11:35:04.007Z,29.35
2023-02-02T11:37:52.664Z,24.00
2023-02-02T11:40:29.380Z,17.23
2023-02-02T11:42:58.802Z,21.67
2023-02-02T11:45:33.464Z,20.02
2023-02-02T11:48:21.641Z,23.27
2023-02-02T11:50:55.254Z,20.30
2023-02-02T11:53:44.229Z,17.95
2023-02-02T11:56:23.598Z,13.18
2023-02-02T11:58:53.220Z,24.80
2023-02-02T12:01:24.900Z,16.90
2023-02-02T12:04:00.239Z,15.40
2023-02-02T12:06:38.430Z,19.33
2023-02-02T12:09:14.734Z,17.85
2023-02-02T12:11:55.281Z,16.73
2023-02-02T12:14:39.883Z,17.00
2023-02-02T12:17:17.054Z,18.80
2023-02-02T12:19:45.057Z,10.40
2023-02-02T12:22:28.494Z,14.13
2023-02-02T12:25:02.053Z,17.73
2023-02-02T12:27:48.305Z,13.30
2023-02-02T12:30:19.603Z,10.55
2023-02-02T12:33:04.913Z,14.90
2023-02-02T12:35:44.520Z,19.60
2023-02-02T12:38:15.689Z,17.15
2023-02-02T12:40:49.508Z,14.55
2023-02-02T12:46:04.517Z,19.20
2023-02-02T12:48:47.399Z,16.80
2023-02-02T12:51:27.805Z,14.50
2023-02-02T12:54:32.965Z,13.40
2023-02-02T12:57:03.293Z,16.45
2023-02-02T12:59:39.614Z,23.35
2023-02-02T13:02:26.227Z,18.38
2023-02-02T13:05:13.086Z,18.23
2023-02-02T13:07:43.816Z,26.90
2023-02-02T13:10:18.347Z,20.95
2023-02-02T13:13:08.340Z,20.15
2023-02-02T13:15:41.830Z,31.42
2023-02-02T13:18:21.645Z,18.50
2023-02-02T13:20:53.065Z,14.68
2023-02-02T13:23:21.717Z,21.70
2023-02-02T13:26:01.392Z,18.73
2023-02-02T13:28:39.183Z,27.00
2023-02-02T13:31:13.048Z,22.40
2023-02-02T13:33:44.709Z,24.50
2023-02-02T13:36:26.040Z,22.02
2023-02-02T13:39:02.780Z,25.52
2023-02-02T13:41:32.719Z,17.30
2023-02-02T13:44:04.788Z,22.15
2023-02-02T13:46:52.368Z,16.67
2023-02-02T13:49:20.522Z,16.73
2023-02-02T13:51:55.004Z,16.00
2023-02-02T13:54:47.243Z,21.00
2023-02-02T13:57:31.743Z,22.55
2023-02-02T14:00:14.406Z,25.20
2023-02-02T14:02:42.527Z,26.38
2023-02-02T14:05:21.164Z,25.85
2023-02-02T14:07:55.960Z,23.15
2023-02-02T14:10:29.158Z,29.30
2023-02-02T14:12:57.489Z,17.30
2023-02-02T14:15:39.922Z,36.25
2023-02-02T14:18:08.174Z,25.73
2023-02-02T14:20:42.101Z,31.48
2023-02-02T14:23:29.075Z,26.92
2023-02-02T14:26:06.904Z,34.72
2023-02-02T14:28:45.918Z,37.88
2023-02-02T14:31:18.668Z,37.53
2023-02-02T14:33:49.967Z,35.15
2023-02-02T14:36:19.636Z,24.02
2023-02-02T14:38:47.608Z,27.92
2023-02-02T14:41:35.896Z,29.20
2023-02-02T14:44:04.750Z,30.95
2023-02-02T14:46:40.121Z,37.67
2023-02-02T14:49:08.216Z,33.45
2023-02-02T14:51:46.837Z,27.17
2023-02-02T14:54:25.737Z,35.55
2023-02-02T14:57:00.317Z,29.58
2023-02-02T14:59:41.307Z,51.35
2023-02-02T15:02:11.439Z,34.90
2023-02-02T15:04:42.245Z,38.30
2023-02-02T15:07:25.655Z,43.17
2023-02-02T15:09:56.974Z,25.55
2023-02-02T15:12:35.090Z,34.45
2023-02-02T15:15:14.525Z,42.95
2023-02-02T15:17:44.373Z,26.95
2023-02-02T15:20:27.509Z,45.05
2023-02-02T15:23:01.884Z,45.50
2023-02-02T15:25:32.805Z,43.50
2023-02-02T15:28:04.293Z,37.67
2023-02-02T15:30:34.427Z,40.15
2023-02-02T15:33:13.438Z,49.13
2023-02-02T15:35:41.947Z,41.83
2023-02-02T15:38:16.591Z,42.20
2023-02-02T15:40:45.644Z,36.53
2023-02-02T15:43:17.767Z,45.58
2023-02-02T15:45:57.117Z,43.55
2023-02-02T15:48:30.328Z,44.70
2023-02-02T15:51:00.705Z,43.35
2023-02-02T15:53:39.743Z,47.65
2023-02-02T15:56:26.426Z,37.88
2023-02-02T15:58:59.573Z,45.92
2023-02-02T16:01:28.832Z,44.35
2023-02-02T16:04:00.846Z,44.22
2023-02-02T16:06:31.767Z,31.40
2023-02-02T16:09:02.999Z,44.30
2023-02-02T16:11:34.529Z,53.25
2023-02-02T16:14:10.459Z,41.08
2023-02-02T16:16:42.452Z,45.72
2023-02-02T16:19:12.852Z,61.83
2023-02-02T16:22:04.345Z,49.92
2023-02-02T16:24:34.956Z,48.15
2023-02-02T16:27:06.756Z,50.42
2023-02-02T16:29:41.028Z,51.70
2023-02-02T16:32:28.051Z,55.60
2023-02-02T16:34:57.271Z,55.90
2023-02-02T16:37:28.134Z,53.03
2023-02-02T16:39:57.825Z,55.70
2023-02-02T16:42:27.559Z,50.70
2023-02-02T16:44:59.929Z,47.17
2023-02-02T16:47:30.378Z,41.80
2023-02-02T16:50:08.711Z,46.72
2023-02-02T16:52:49.907Z,53.20
2023-02-02T16:55:21.755Z,45.58
2023-02-02T16:57:50.735Z,46.20
2023-02-02T17:00:25.480Z,44.67
2023-02-02T17:03:17.952Z,46.17
2023-02-02T17:08:25.855Z,43.45
2023-02-02T17:11:03.668Z,50.25
2023-02-02T17:13:32.404Z,57.72
2023-02-02T17:16:03.051Z,53.53
2023-02-02T17:18:35.720Z,47.97
2023-02-02T17:21:07.529Z,49.38
2023-02-02T17:23:38.632Z,50.13
2023-02-02T17:26:13.918Z,51.10
2023-02-02T17:28:44.071Z,52.05
2023-02-02T17:31:17.303Z,52.63
2023-02-02T17:33:46.789Z,54.55
2023-02-02T17:36:15.229Z,52.13
2023-02-02T17:38:44.144Z,55.53
2023-02-02T17:41:14.193Z,56.78
2023-02-02T17:43:45.667Z,53.13
2023-02-02T17:46:16.095Z,51.70
2023-02-02T17:48:45.281Z,54.45
2023-02-02T17:51:17.629Z,50.88
2023-02-02T17:53:47.154Z,52.45
2023-02-02T17:56:16.696Z,60.50
2023-02-02T17:58:45.160Z,59.67
2023-02-02T18:01:13.912Z,56.03
2023-02-02T18:03:45.846Z,53.08
2023-02-02T18:06:15.444Z,65.00
2023-02-02T18:08:45.625Z,56.75
2023-02-02T18:11:18.571Z,54.17
2023-02-02T18:13:47.836Z,54.42
2023-02-02T18:16:21.385Z,53.35
2023-02-02T18:18:54.337Z,60.75
2023-02-02T18:21:23.687Z,50.00
2023-02-02T18:23:55.607Z,51.25
2023-02-02T18:26:27.753Z,50.22
2023-02-02T18:28:56.215Z,57.50
2023-02-02T18:31:26.875Z,57.40
2023-02-02T18:33:59.057Z,65.40
2023-02-02T18:36:34.751Z,61.97
2023-02-02T18:39:03.623Z,61.90
2023-02-02T18:41:34.383Z,73.15
2023-02-02T18:44:08.298Z,66.25
2023-02-02T18:46:39.034Z,67.20
2023-02-02T18:49:08.468Z,69.05
2023-02-02T18:51:40.569Z,69.43
2023-02-02T18:54:11.283Z,68.05
2023-02-02T18:56:40.968Z,70.32
2023-02-02T18:59:14.053Z,73.53
2023-02-02T19:01:46.290Z,75.47
2023-02-02T19:04:15.929Z,82.30
2023-02-02T19:07:01.941Z,82.82
2023-02-02T19:09:31.195Z,83.07
2023-02-02T19:11:59.446Z,73.32
2023-02-02T19:14:38.619Z,76.68
2023-02-02T19:17:17.419Z,84.03
2023-02-02T19:19:49.909Z,79.43
2023-02-02T19:22:22.425Z,71.40
2023-02-02T19:24:51.298Z,52.60
2023-02-02T19:27:20.104Z,80.55
2023-02-02T19:29:50.735Z,77.57
2023-02-02T19:32:23.491Z,67.75
2023-02-02T19:34:53.526Z,71.38
2023-02-02T19:37:27.196Z,67.10
2023-02-02T19:40:03.147Z,77.43
2023-02-02T19:42:41.587Z,70.30
2023-02-02T19:45:20.566Z,70.50
2023-02-02T19:47:51.043Z,71.90
2023-02-02T19:50:21.019Z,67.28
2023-02-02T19:52:50.812Z,72.57
2023-02-02T19:55:23.188Z,72.30
2023-02-02T19:57:52.549Z,74.35
2023-02-02T20:00:26.912Z,64.72
2023-02-02T20:03:22.557Z,64.20
2023-02-02T20:05:51.926Z,81.28
2023-02-02T20:08:41.004Z,76.70
2023-02-02T20:11:32.157Z,65.55
2023-02-02T20:14:26.559Z,66.82
2023-02-02T20:17:00.941Z,60.60
2023-02-02T20:19:37.151Z,62.15
2023-02-02T20:22:21.579Z,57.60
2023-02-02T20:24:50.057Z,63.03
2023-02-02T20:27:24.981Z,61.00
2023-02-02T20:29:56.362Z,53.97
2023-02-02T20:32:26.805Z,59.35
2023-02-02T20:35:00.441Z,58.30
2023-02-02T20:37:36.799Z,52.78
2023-02-02T20:40:08.928Z,47.25
2023-02-02T20:42:40.615Z,55.30
2023-02-02T20:45:09.180Z,49.20
2023-02-02T20:47:39.507Z,48.90
2023-02-02T20:50:13.351Z,46.75
2023-02-02T20:52:44.530Z,44.20
2023-02-02T20:55:15.367Z,50.58
2023-02-02T20:57:48.574Z,48.63
2023-02-02T21:00:27.036Z,43.38
2023-02-02T21:03:17.634Z,43.65
2023-02-02T21:05:48.438Z,48.17
2023-02-02T21:08:17.216Z,44.50
2023-02-02T21:10:47.845Z,53.70
2023-02-02T21:13:18.549Z,48.30
2023-02-02T21:15:50.636Z,53.22
2023-02-02T21:18:19.546Z,44.75
2023-02-02T21:20:49.535Z,49.97
2023-02-02T21:23:21.624Z,43.35
2023-02-02T21:25:49.867Z,44.03
2023-02-02T21:28:21.328Z,41.83
2023-02-02T21:30:50.856Z,50.40
2023-02-02T21:33:32.771Z,38.67
2023-02-02T21:36:27.273Z,38.53
2023-02-02T21:39:00.929Z,38.92
2023-02-02T21:41:33.021Z,38.92
2023-02-02T21:44:01.329Z,43.45
2023-02-02T21:46:39.304Z,42.40
2023-02-02T21:49:14.879Z,34.03
2023-02-02T21:51:45.489Z,38.63
2023-02-02T21:54:23.914Z,40.13
2023-02-02T21:56:55.555Z,46.13
2023-02-02T21:59:29.548Z,34.45
2023-02-02T22:01:58.228Z,46.10
2023-02-02T22:04:28.421Z,37.83
2023-02-02T22:06:56.792Z,41.65
2023-02-02T22:09:28.495Z,40.95
2023-02-02T22:11:58.357Z,33.13
2023-02-02T22:14:33.983Z,33.35
2023-02-02T22:17:02.739Z,40.88
2023-02-02T22:19:36.099Z,33.80
2023-02-02T22:22:09.432Z,35.55
2023-02-02T22:24:38.901Z,34.83
2023-02-02T22:27:33.646Z,34.30
2023-02-02T22:30:15.241Z,31.30
2023-02-02T22:33:03.360Z,34.10
2023-02-02T22:35:32.822Z,32.40
2023-02-02T22:38:02.395Z,30.63
2023-02-02T22:40:36.104Z,28.85
2023-02-02T22:43:07.596Z,32.13
2023-02-02T22:45:37.480Z,29.80
2023-02-02T22:48:11.452Z,37.00
2023-02-02T22:50:42.364Z,36.78
2023-02-02T22:53:12.362Z,33.40
2023-02-02T22:55:43.461Z,32.00
2023-02-02T22:58:12.579Z,35.30
2023-02-02T23:00:41.508Z,36.72
2023-02-02T23:03:31.691Z,29.63
2023-02-02T23:06:01.656Z,26.38
2023-02-02T23:08:30.981Z,25.17
2023-02-02T23:11:02.361Z,27.50
2023-02-02T23:13:33.483Z,27.58
2023-02-02T23:16:01.993Z,29.73
2023-02-02T23:18:35.300Z,30.58
2023-02-02T23:21:04.620Z,21.00
2023-02-02T23:23:34.490Z,21.83
2023-02-02T23:26:04.654Z,32.50
2023-02-02T23:28:37.944Z,23.65
2023-02-02T23:31:06.442Z,25.15
2023-02-02T23:33:42.328Z,31.73
2023-02-02T23:36:10.954Z,30.02
2023-02-02T23:38:39.329Z,25.58
2023-02-02T23:41:08.191Z,26.92
2023-02-02T23:43:37.187Z,28.70
2023-02-02T23:46:08.731Z,37.15
2023-02-02T23:48:38.692Z,29.63
2023-02-02T23:51:07.550Z,26.80
2023-02-02T23:53:36.178Z,29.65
2023-02-02T23:56:07.088Z,21.98
2023-02-02T23:58:37.420Z,25.20
